Time;durP1;ratioP1;P1;durP2;ratioP2;P2;SDS_P1;SDS_P2;PMS_P1;PMS_P2;Temp;Humidity;BMP_temperature;BMP_pressure;BME280_temperature;BME280_humidity;BME280_pressure;Samples;Min_cycle;Max_cycle;Signal;HPM_P1;HPM_P2
2022/08/04 00:00:16;;;;;;;8.88;3.22;;;20.10;99.90;;;;;;5025852;28;20044;-84
2022/08/04 00:03:10;;;;;;;12.40;3.55;;;20.00;99.90;;;;;;5008166;28;20041;-84
2022/08/04 00:05:58;;;;;;;9.38;3.38;;;20.00;99.90;;;;;;5007271;28;20048;-84
2022/08/04 00:08:30;;;;;;;9.80;4.00;;;20.00;99.90;;;;;;5042538;28;20041;-83
2022/08/04 00:10:58;;;;;;;7.72;3.70;;;20.00;99.90;;;;;;5006132;28;20048;-83
2022/08/04 00:13:26;;;;;;;7.03;3.70;;;20.00;99.90;;;;;;5025640;28;20060;-84
2022/08/04 00:16:03;;;;;;;7.63;3.75;;;20.00;99.90;;;;;;5027698;28;20081;-83
2022/08/04 00:18:35;;;;;;;7.45;3.72;;;19.90;99.90;;;;;;5032594;28;20099;-83
2022/08/04 00:21:05;;;;;;;8.82;3.63;;;19.90;99.90;;;;;;5019194;28;20041;-84
2022/08/04 00:23:34;;;;;;;9.55;4.00;;;19.90;99.90;;;;;;5010571;28;20029;-83
2022/08/04 00:26:01;;;;;;;8.35;4.72;;;19.90;99.90;;;;;;5020421;28;20048;-82
2022/08/04 00:28:28;;;;;;;8.00;4.22;;;19.80;99.90;;;;;;5027880;28;20044;-83
2022/08/04 00:30:53;;;;;;;9.20;3.90;;;19.80;99.90;;;;;;5003406;28;20037;-83
2022/08/04 00:33:19;;;;;;;9.88;4.03;;;19.70;99.90;;;;;;5003553;28;20037;-83
2022/08/04 00:35:48;;;;;;;13.57;4.30;;;19.80;99.90;;;;;;5001687;28;20073;-83
2022/08/04 00:38:16;;;;;;;6.03;3.13;;;19.70;99.90;;;;;;5013342;28;20038;-83
2022/08/04 00:41:23;;;;;;;8.77;3.58;;;19.70;99.90;;;;;;5024070;28;22818;-84
2022/08/04 00:44:08;;;;;;;9.88;3.78;;;19.70;99.90;;;;;;5004679;28;20046;-86
2022/08/04 00:46:37;;;;;;;8.18;3.90;;;19.70;99.90;;;;;;5002506;28;20546;-84
2022/08/04 00:49:35;;;;;;;9.65;3.30;;;19.70;99.90;;;;;;5003489;28;22593;-84
2022/08/04 00:52:27;;;;;;;9.27;3.50;;;19.70;99.90;;;;;;5039222;28;20053;-83
2022/08/04 00:55:21;;;;;;;8.55;3.25;;;19.60;99.90;;;;;;5001799;28;20044;-83
2022/08/04 00:58:18;;;;;;;9.95;3.55;;;19.70;99.90;;;;;;5003630;28;20099;-82
2022/08/04 01:01:13;;;;;;;7.30;3.85;;;19.70;99.90;;;;;;5020360;28;20045;-83
2022/08/04 01:03:53;;;;;;;9.88;4.05;;;19.70;99.90;;;;;;5007747;28;20092;-84
2022/08/04 01:06:43;;;;;;;12.68;3.78;;;19.70;99.90;;;;;;5004582;28;20034;-84
2022/08/04 01:09:27;;;;;;;8.57;3.90;;;19.70;99.90;;;;;;5003047;28;20531;-82
2022/08/04 01:12:18;;;;;;;6.85;3.38;;;19.70;99.90;;;;;;5021876;28;20068;-83
2022/08/04 01:14:43;;;;;;;12.63;3.78;;;19.80;99.90;;;;;;5020549;28;20045;-83
2022/08/04 01:17:36;;;;;;;6.00;3.13;;;19.80;99.90;;;;;;5021892;28;20575;-84
2022/08/04 01:20:10;;;;;;;5.38;3.55;;;19.80;99.90;;;;;;5010682;28;20095;-82
2022/08/04 01:22:59;;;;;;;;;;;19.80;99.90;;;;;;4987297;28;20043;-83
2022/08/04 01:25:27;;;;;;;9.15;3.58;;;19.80;99.90;;;;;;5018848;28;19917;-83
2022/08/04 01:28:23;;;;;;;7.97;3.38;;;19.80;99.90;;;;;;4999890;28;20044;-83
2022/08/04 01:30:56;;;;;;;6.63;3.20;;;19.80;99.90;;;;;;5027329;28;20645;-83
2022/08/04 01:33:28;;;;;;;9.00;3.15;;;19.80;99.90;;;;;;5019070;28;20052;-84
2022/08/04 01:36:05;;;;;;;5.53;2.88;;;19.80;99.90;;;;;;5005258;28;20052;-82
2022/08/04 01:38:37;;;;;;;9.98;3.95;;;19.80;99.90;;;;;;5019736;28;20038;-85
2022/08/04 01:41:08;;;;;;;7.82;3.25;;;19.70;99.90;;;;;;4999330;28;20048;-83
2022/08/04 01:43:39;;;;;;;10.50;3.55;;;19.70;99.90;;;;;;5014504;28;20043;-83
2022/08/04 01:46:05;;;;;;;8.00;3.30;;;19.70;99.90;;;;;;5023112;28;20041;-83
2022/08/04 01:48:31;;;;;;;9.95;3.28;;;19.70;99.90;;;;;;4999993;28;20046;-83
2022/08/04 01:51:01;;;;;;;8.80;3.72;;;19.70;99.90;;;;;;5002845;28;20087;-82
2022/08/04 01:53:32;;;;;;;6.10;3.13;;;19.70;99.90;;;;;;5022322;28;20052;-83
2022/08/04 01:56:00;;;;;;;6.80;3.35;;;19.70;99.90;;;;;;5032913;23;20045;-85
2022/08/04 01:58:28;;;;;;;8.90;3.22;;;19.70;99.90;;;;;;4991862;28;20103;-83
2022/08/04 02:01:03;;;;;;;8.32;3.75;;;19.60;99.90;;;;;;5013902;28;20029;-84
2022/08/04 02:03:31;;;;;;;8.75;3.08;;;19.70;99.90;;;;;;5011218;28;20111;-84
2022/08/04 02:06:03;;;;;;;10.88;3.35;;;19.70;99.90;;;;;;4978171;28;20037;-84
2022/08/04 02:08:48;;;;;;;11.02;3.25;;;19.70;99.90;;;;;;5008104;28;20045;-83
2022/08/04 02:11:16;;;;;;;8.25;3.28;;;19.70;99.90;;;;;;5024867;28;20069;-84
2022/08/04 02:14:39;;;;;;;7.72;2.58;;;19.70;99.90;;;;;;5008732;28;20041;-85
2022/08/04 02:16:59;;;;;;;9.40;3.40;;;19.80;99.90;;;;;;5016630;28;20053;-83
2022/08/04 02:19:34;;;;;;;4.95;3.28;;;19.80;99.90;;;;;;5009047;28;20926;-85
2022/08/04 02:22:07;;;;;;;6.93;3.05;;;19.80;99.90;;;;;;5021291;28;20045;-83
2022/08/04 02:24:35;;;;;;;7.10;3.42;;;19.80;99.90;;;;;;5020552;28;20038;-84
2022/08/04 02:27:02;;;;;;;9.93;3.95;;;19.80;99.90;;;;;;5008835;28;20043;-84
2022/08/04 02:29:33;;;;;;;11.80;3.83;;;19.80;99.90;;;;;;5017871;28;20042;-84
2022/08/04 02:32:03;;;;;;;9.88;4.40;;;19.70;99.90;;;;;;5020994;28;20099;-84
2022/08/04 02:34:37;;;;;;;8.43;4.32;;;19.70;99.90;;;;;;5037090;28;20045;-84
2022/08/04 02:37:04;;;;;;;5.80;4.00;;;19.70;99.90;;;;;;5014509;28;20037;-84
2022/08/04 02:39:34;;;;;;;10.98;4.40;;;19.60;99.90;;;;;;5017860;28;20680;-84
2022/08/04 02:42:03;;;;;;;11.60;3.90;;;19.50;99.90;;;;;;5022952;28;20510;-84
2022/08/04 02:44:30;;;;;;;12.90;4.40;;;19.50;99.90;;;;;;5034286;28;20069;-83
2022/08/04 02:46:58;;;;;;;10.50;5.25;;;19.50;99.90;;;;;;5022814;28;20530;-83
2022/08/04 02:49:25;;;;;;;9.60;4.05;;;19.50;99.90;;;;;;5024737;28;20041;-84
2022/08/04 02:51:56;;;;;;;9.50;4.35;;;19.50;99.90;;;;;;4999648;28;20478;-84
2022/08/04 02:54:33;;;;;;;7.25;3.97;;;19.50;99.90;;;;;;5016506;28;20068;-84
2022/08/04 02:57:00;;;;;;;10.93;4.30;;;19.50;99.90;;;;;;5020834;28;20041;-84
2022/08/04 02:59:28;;;;;;;10.18;4.85;;;19.50;99.90;;;;;;5005144;28;20640;-84
2022/08/04 03:01:56;;;;;;;9.43;4.32;;;19.50;99.90;;;;;;5021411;28;20103;-84
2022/08/04 03:04:36;;;;;;;10.75;3.78;;;19.50;99.90;;;;;;5017251;28;20467;-84
2022/08/04 03:07:30;;;;;;;12.52;5.40;;;19.50;99.90;;;;;;5004291;28;20045;-83
2022/08/04 03:10:11;;;;;;;6.40;4.13;;;19.40;99.90;;;;;;5030792;28;20044;-85
2022/08/04 03:13:02;;;;;;;8.98;5.28;;;19.40;99.90;;;;;;5031806;28;20048;-83
2022/08/04 03:15:59;;;;;;;8.48;4.85;;;19.40;99.90;;;;;;5018876;28;20049;-84
2022/08/04 03:18:54;;;;;;;12.75;5.63;;;19.40;99.90;;;;;;5036450;28;20065;-84
2022/08/04 03:21:25;;;;;;;10.90;4.40;;;19.40;99.90;;;;;;5023600;28;20053;-84
2022/08/04 03:24:29;;;;;;;10.27;5.35;;;19.30;99.90;;;;;;5033815;28;20129;-84
2022/08/04 03:27:14;;;;;;;8.40;4.25;;;19.40;99.90;;;;;;5015369;28;20060;-84
2022/08/04 03:30:12;;;;;;;7.00;3.70;;;19.30;99.90;;;;;;5019850;28;20136;-84
2022/08/04 03:33:09;;;;;;;5.80;3.88;;;19.40;99.90;;;;;;5003937;28;20762;-84
2022/08/04 03:36:13;;;;;;;6.53;4.60;;;19.40;99.90;;;;;;5019734;28;20049;-84
2022/08/04 03:38:57;;;;;;;8.37;4.67;;;19.40;99.90;;;;;;5022344;28;20045;-84
2022/08/04 03:42:10;;;;;;;9.57;5.28;;;19.40;99.90;;;;;;5003203;28;20120;-85
2022/08/04 03:45:10;;;;;;;12.50;5.45;;;19.40;99.90;;;;;;4965840;28;20061;-85
2022/08/04 03:48:08;;;;;;;7.30;3.88;;;19.30;99.90;;;;;;4982138;28;20133;-84
2022/08/04 03:54:16;;;;;;;9.18;4.95;;;19.30;99.90;;;;;;5036314;28;20553;-84
2022/08/04 03:56:47;;;;;;;10.82;5.28;;;19.20;99.90;;;;;;5034977;28;20030;-84
2022/08/04 03:59:38;;;;;;;9.60;4.57;;;19.20;99.90;;;;;;4997759;28;20045;-85
2022/08/04 04:02:50;;;;;;;12.40;5.80;;;19.20;99.90;;;;;;5004155;28;21498;-85
2022/08/04 04:05:40;;;;;;;11.15;4.63;;;19.20;99.90;;;;;;5002021;28;20057;-84
2022/08/04 04:08:33;;;;;;;9.20;4.82;;;19.20;99.90;;;;;;5005718;28;20111;-84
2022/08/04 04:11:08;;;;;;;11.88;5.25;;;19.10;99.90;;;;;;5007739;28;20589;-84
2022/08/04 04:13:33;;;;;;;7.18;5.30;;;19.10;99.90;;;;;;5022970;28;20042;-84
2022/08/04 04:16:33;;;;;;;9.95;5.22;;;19.10;99.90;;;;;;5027679;28;20041;-85
2022/08/04 04:19:20;;;;;;;11.73;5.43;;;19.10;99.90;;;;;;5027974;28;20059;-84
2022/08/04 04:21:57;;;;;;;10.60;5.32;;;19.10;99.90;;;;;;5026286;28;20498;-84
2022/08/04 04:24:50;;;;;;;9.35;5.78;;;19.20;99.90;;;;;;5026182;28;20111;-83
2022/08/04 04:27:33;;;;;;;7.00;4.97;;;19.20;99.90;;;;;;5023396;28;20170;-84
2022/08/04 04:30:15;;;;;;;8.43;4.07;;;19.20;99.90;;;;;;5023174;28;20153;-85
2022/08/04 04:33:06;;;;;;;7.18;4.05;;;19.20;99.90;;;;;;5038302;28;20476;-85
2022/08/04 04:36:04;;;;;;;8.18;4.03;;;19.20;99.90;;;;;;5023031;28;20112;-86
2022/08/04 04:39:00;;;;;;;10.55;4.85;;;19.20;99.90;;;;;;4999474;28;20461;-86
2022/08/04 04:41:57;;;;;;;8.32;4.55;;;19.20;99.90;;;;;;5022828;28;20053;-85
2022/08/04 04:44:49;;;;;;;12.48;5.00;;;19.20;99.90;;;;;;5037216;28;20045;-85
2022/08/04 04:48:00;;;;;;;9.20;4.05;;;19.20;99.90;;;;;;5022837;28;20045;-85
2022/08/04 04:51:04;;;;;;;8.88;4.80;;;19.20;99.90;;;;;;5040317;28;22356;-83
2022/08/04 04:54:17;;;;;;;4.93;3.85;;;19.20;99.90;;;;;;5009233;28;20052;-85
2022/08/04 04:56:50;;;;;;;7.25;4.32;;;19.20;99.90;;;;;;5022835;28;20068;-86
2022/08/04 04:59:23;;;;;;;7.68;5.00;;;19.30;99.90;;;;;;5019413;28;20046;-84
2022/08/04 05:02:22;;;;;;;11.90;7.18;;;19.30;99.90;;;;;;5021431;28;20044;-83
2022/08/04 05:04:59;;;;;;;9.27;6.18;;;19.30;99.90;;;;;;5021989;28;20083;-85
2022/08/04 05:08:06;;;;;;;9.30;6.10;;;19.30;99.90;;;;;;5038606;28;20048;-85
2022/08/04 05:11:18;;;;;;;8.48;4.85;;;19.20;99.90;;;;;;5026326;28;20033;-85
2022/08/04 05:13:48;;;;;;;8.40;5.80;;;19.20;99.90;;;;;;5011729;28;20569;-84
2022/08/04 05:16:38;;;;;;;11.77;6.50;;;19.30;99.90;;;;;;5015816;28;20048;-85
2022/08/04 05:19:42;;;;;;;7.40;3.92;;;19.40;99.90;;;;;;5022558;28;20061;-84
2022/08/04 05:22:12;;;;;;;8.43;5.68;;;19.50;99.90;;;;;;5021090;28;20041;-84
2022/08/04 05:24:42;;;;;;;11.77;6.85;;;19.60;99.90;;;;;;5020151;28;20055;-85
2022/08/04 05:27:15;;;;;;;11.23;6.70;;;19.70;99.90;;;;;;5020325;28;20505;-85
2022/08/04 05:29:51;;;;;;;6.85;4.85;;;19.70;99.90;;;;;;5021654;28;20045;-84
2022/08/04 05:32:23;;;;;;;12.65;6.25;;;19.80;99.90;;;;;;5006219;28;20692;-84
2022/08/04 05:34:58;;;;;;;7.32;4.15;;;19.80;99.90;;;;;;5021515;28;20045;-84
2022/08/04 05:37:25;;;;;;;12.48;6.50;;;19.90;99.90;;;;;;5020493;28;20041;-84
2022/08/04 05:40:03;;;;;;;8.38;5.38;;;20.00;99.90;;;;;;5021392;28;20045;-84
2022/08/04 05:42:31;;;;;;;8.23;5.65;;;20.10;99.90;;;;;;5033578;28;20037;-84
2022/08/04 05:44:59;;;;;;;9.23;5.47;;;20.00;99.90;;;;;;5018389;28;20060;-84
2022/08/04 05:47:26;;;;;;;11.68;6.10;;;20.10;99.90;;;;;;5018912;28;20104;-84
2022/08/04 05:49:54;;;;;;;11.40;5.88;;;20.20;99.90;;;;;;4988451;28;20465;-85
2022/08/04 05:52:21;;;;;;;11.02;6.60;;;20.20;99.90;;;;;;5017358;28;20051;-84
2022/08/04 05:54:49;;;;;;;13.32;6.28;;;20.40;99.90;;;;;;5019614;28;20041;-85
2022/08/04 05:57:15;;;;;;;12.82;6.65;;;20.40;99.90;;;;;;4999577;28;20100;-84
2022/08/04 05:59:45;;;;;;;8.93;5.65;;;20.50;99.90;;;;;;5001409;28;20046;-85
2022/08/04 06:02:14;;;;;;;12.35;7.57;;;20.60;99.90;;;;;;4992020;28;20044;-84
2022/08/04 06:04:42;;;;;;;10.65;7.13;;;20.70;99.90;;;;;;5015465;28;20041;-87
2022/08/04 06:07:10;;;;;;;15.63;7.53;;;20.80;99.90;;;;;;5014320;28;20045;-87
2022/08/04 06:09:36;;;;;;;11.45;6.97;;;20.90;99.90;;;;;;5025718;28;20041;-88
2022/08/04 06:12:07;;;;;;;10.35;5.68;;;20.90;99.90;;;;;;5026406;28;20039;-88
2022/08/04 06:14:39;;;;;;;9.48;6.00;;;21.00;99.90;;;;;;5017860;28;20052;-86
2022/08/04 06:17:07;;;;;;;11.65;7.15;;;21.00;99.90;;;;;;5037663;28;20044;-86
2022/08/04 06:19:35;;;;;;;11.32;6.88;;;21.10;99.90;;;;;;5003461;28;20135;-86
2022/08/04 06:22:03;;;;;;;10.05;6.55;;;21.10;99.90;;;;;;5040212;28;20063;-87
2022/08/04 06:24:31;;;;;;;12.02;6.25;;;21.20;99.90;;;;;;5020815;28;20056;-86
2022/08/04 06:26:57;;;;;;;11.38;5.85;;;21.30;99.90;;;;;;5022097;28;20035;-85
2022/08/04 06:29:35;;;;;;;10.38;5.93;;;21.40;99.90;;;;;;5024338;28;20041;-88
2022/08/04 06:32:12;;;;;;;10.63;6.82;;;21.40;99.90;;;;;;5024054;28;20072;-87
2022/08/04 06:34:39;;;;;;;10.13;5.97;;;21.60;99.90;;;;;;5022389;28;20418;-85
2022/08/04 06:37:06;;;;;;;12.23;6.13;;;21.70;99.90;;;;;;5020384;28;20037;-87
2022/08/04 06:39:33;;;;;;;8.38;5.53;;;21.80;99.90;;;;;;5016601;28;20109;-84
2022/08/04 06:41:59;;;;;;;11.85;5.65;;;21.80;99.90;;;;;;5019066;28;20033;-85
2022/08/04 06:44:28;;;;;;;12.38;6.10;;;21.90;99.90;;;;;;5022108;28;20037;-83
2022/08/04 06:46:55;;;;;;;13.52;6.22;;;21.90;99.90;;;;;;5024431;28;20033;-86
2022/08/04 06:49:23;;;;;;;10.30;6.07;;;22.00;99.90;;;;;;5021740;28;20048;-86
2022/08/04 06:51:51;;;;;;;13.13;6.57;;;22.00;99.90;;;;;;5004240;28;20037;-87
2022/08/04 06:54:16;;;;;;;10.93;6.70;;;22.00;99.90;;;;;;5003649;28;20071;-86
2022/08/04 06:56:44;;;;;;;9.07;6.70;;;22.10;99.90;;;;;;5005320;28;20049;-85
2022/08/04 06:59:13;;;;;;;10.38;6.65;;;22.10;99.90;;;;;;5018870;28;20513;-85
2022/08/04 07:01:40;;;;;;;11.45;6.10;;;22.10;99.90;;;;;;5021615;28;20410;-87
2022/08/04 07:04:06;;;;;;;14.10;7.22;;;22.20;99.90;;;;;;5024653;28;20044;-85
2022/08/04 07:06:32;;;;;;;10.77;6.97;;;22.20;99.90;;;;;;4995912;28;20053;-86
2022/08/04 07:08:59;;;;;;;12.10;7.53;;;22.30;99.90;;;;;;5011526;28;20434;-85
2022/08/04 07:11:26;;;;;;;12.35;7.45;;;22.30;99.90;;;;;;5010686;28;20155;-85
2022/08/04 07:13:53;;;;;;;14.57;6.60;;;22.40;99.90;;;;;;5023937;28;20646;-87
2022/08/04 07:16:22;;;;;;;10.02;6.97;;;22.50;99.90;;;;;;5019885;28;21628;-86
2022/08/04 07:18:47;;;;;;;12.52;6.63;;;22.60;99.90;;;;;;5004059;28;20041;-88
2022/08/04 07:21:23;;;;;;;8.32;5.93;;;22.60;99.90;;;;;;5018518;28;20469;-87
2022/08/04 07:23:51;;;;;;;11.50;6.28;;;22.60;99.90;;;;;;5019442;28;20030;-87
2022/08/04 07:26:18;;;;;;;8.95;5.85;;;22.50;99.90;;;;;;5000556;28;21540;-87
2022/08/04 07:28:44;;;;;;;12.48;5.63;;;22.50;99.90;;;;;;5001878;28;20129;-86
2022/08/04 07:31:15;;;;;;;7.88;5.55;;;22.60;99.90;;;;;;5001357;28;20551;-87
2022/08/04 07:33:47;;;;;;;11.73;5.38;;;22.70;99.90;;;;;;5002988;28;20053;-86
2022/08/04 07:36:14;;;;;;;10.23;4.63;;;22.60;99.90;;;;;;4991855;28;20048;-86
2022/08/04 07:38:41;;;;;;;13.25;5.40;;;22.60;99.90;;;;;;5026575;28;20054;-86
2022/08/04 07:41:07;;;;;;;7.50;4.47;;;22.70;99.90;;;;;;5022147;28;20513;-88
2022/08/04 07:43:35;;;;;;;9.95;5.38;;;22.70;99.90;;;;;;5022877;28;20052;-86
2022/08/04 07:46:06;;;;;;;11.02;5.15;;;22.70;99.90;;;;;;5040897;28;20088;-88
2022/08/04 07:48:33;;;;;;;8.98;5.10;;;22.70;99.90;;;;;;4994861;28;20110;-87
2022/08/04 07:51:02;;;;;;;12.30;5.10;;;22.70;99.90;;;;;;5006352;28;20041;-86
2022/08/04 07:53:28;;;;;;;11.15;4.93;;;22.70;99.90;;;;;;5009089;28;20120;-88
2022/08/04 07:55:54;;;;;;;8.73;4.93;;;22.80;99.90;;;;;;4994032;28;20150;-86
2022/08/04 07:58:20;;;;;;;10.50;5.20;;;22.80;99.90;;;;;;5053822;22;20099;-60
2022/08/04 08:00:46;;;;;;;12.63;5.88;;;22.80;99.90;;;;;;5051644;28;20524;-58
2022/08/04 08:03:14;;;;;;;9.43;5.35;;;22.90;99.90;;;;;;5069378;28;20040;-59
2022/08/04 08:05:40;;;;;;;15.07;4.90;;;23.00;99.90;;;;;;5053018;28;20155;-60
2022/08/04 08:08:06;;;;;;;8.30;4.88;;;23.00;99.90;;;;;;5052986;28;20048;-57
2022/08/04 08:10:31;;;;;;;11.38;5.15;;;23.10;99.90;;;;;;5052945;28;20537;-60
2022/08/04 08:12:57;;;;;;;9.48;4.38;;;23.10;99.90;;;;;;5052018;28;20102;-60
2022/08/04 08:15:24;;;;;;;14.55;5.53;;;23.20;99.90;;;;;;5052906;28;20130;-60
2022/08/04 08:17:50;;;;;;;11.38;5.10;;;23.30;99.90;;;;;;5053700;28;20051;-60
2022/08/04 08:20:16;;;;;;;7.55;4.72;;;23.50;99.90;;;;;;5035552;28;20111;-60
2022/08/04 08:22:41;;;;;;;12.23;5.22;;;23.60;99.90;;;;;;5053676;28;20037;-62
2022/08/04 08:25:08;;;;;;;10.32;5.40;;;23.70;99.90;;;;;;5035238;28;20406;-59
2022/08/04 08:27:36;;;;;;;8.07;4.38;;;23.70;99.90;;;;;;5052554;28;20492;-60
2022/08/04 08:30:02;;;;;;;9.35;4.35;;;23.90;99.90;;;;;;5053428;28;20112;-61
2022/08/04 08:32:28;;;;;;;10.35;4.32;;;24.00;99.90;;;;;;5078122;28;20099;-59
2022/08/04 08:34:54;;;;;;;10.43;4.53;;;24.20;99.90;;;;;;5069443;28;20044;-61
2022/08/04 08:37:31;;;;;;;9.27;4.60;;;24.20;99.90;;;;;;5070028;28;20044;-61
2022/08/04 08:40:09;;;;;;;10.23;4.18;;;24.30;99.90;;;;;;5071042;28;20369;-62
2022/08/04 08:42:38;;;;;;;11.65;3.83;;;24.30;99.90;;;;;;5071532;28;20102;-61
2022/08/04 08:45:28;;;;;;;7.18;4.03;;;24.40;99.90;;;;;;5071633;28;20076;-62
2022/08/04 08:48:18;;;;;;;7.38;3.65;;;24.50;99.90;;;;;;5053934;28;20041;-61
2022/08/04 08:50:53;;;;;;;7.53;4.07;;;24.60;99.90;;;;;;5051306;28;20037;-62
2022/08/04 08:53:31;;;;;;;7.28;3.95;;;24.80;99.90;;;;;;5051515;28;20126;-62
2022/08/04 08:56:18;;;;;;;10.02;3.70;;;24.90;99.90;;;;;;5052387;28;20110;-63
2022/08/04 08:59:28;;;;;;;11.18;3.97;;;24.90;99.90;;;;;;5048018;28;20128;-60
2022/08/04 09:02:27;;;;;;;11.25;3.20;;;25.00;99.90;;;;;;4994127;28;20146;-62
2022/08/04 09:05:27;;;;;;;6.95;2.72;;;25.30;99.90;;;;;;4993818;28;20061;-62
2022/08/04 09:08:19;;;;;;;8.55;2.85;;;25.40;99.90;;;;;;5029096;28;20200;-62
2022/08/04 09:10:57;;;;;;;5.88;2.60;;;25.50;99.90;;;;;;5031453;28;20042;-64
2022/08/04 09:13:38;;;;;;;6.38;2.95;;;25.70;99.90;;;;;;5046271;28;20639;-63
2022/08/04 09:16:35;;;;;;;10.30;3.38;;;25.80;99.90;;;;;;5050840;28;20106;-61
2022/08/04 09:19:25;;;;;;;6.35;2.90;;;25.90;99.90;;;;;;5046265;28;20052;-59
2022/08/04 09:22:17;;;;;;;8.27;2.92;;;26.20;99.90;;;;;;5051674;28;20036;-61
2022/08/04 09:24:58;;;;;;;7.47;3.40;;;26.20;99.90;;;;;;5049147;28;20048;-58
2022/08/04 09:27:30;;;;;;;7.95;2.38;;;26.30;99.90;;;;;;5052124;28;20577;-59
2022/08/04 09:30:04;;;;;;;10.13;2.33;;;26.30;99.90;;;;;;5050909;28;20110;-60
2022/08/04 09:33:00;;;;;;;4.20;2.10;;;26.40;99.90;;;;;;5052825;28;20041;-60
2022/08/04 09:35:46;;;;;;;4.30;1.63;;;26.10;99.90;;;;;;5052121;28;20052;-60
2022/08/04 09:38:39;;;;;;;6.05;1.77;;;26.10;99.90;;;;;;5033658;28;20040;-61
2022/08/04 09:41:20;;;;;;;4.80;1.58;;;26.20;99.90;;;;;;5051143;28;20041;-58
2022/08/04 09:44:13;;;;;;;3.38;1.85;;;26.40;99.90;;;;;;5051759;28;20037;-60
2022/08/04 09:47:09;;;;;;;3.20;1.30;;;26.50;99.90;;;;;;5050901;28;20045;-61
2022/08/04 09:49:47;;;;;;;2.85;1.45;;;26.60;99.90;;;;;;5048480;28;20048;-60
2022/08/04 09:52:43;;;;;;;4.18;1.80;;;26.70;99.90;;;;;;5051851;28;20048;-60
2022/08/04 09:55:44;;;;;;;4.55;1.50;;;26.60;99.90;;;;;;5032023;28;20087;-62
2022/08/04 09:58:36;;;;;;;1.65;1.25;;;26.50;99.90;;;;;;5028786;28;20114;-61
2022/08/04 10:01:29;;;;;;;2.75;1.45;;;26.70;99.90;;;;;;5032642;28;20053;-63
2022/08/04 10:04:01;;;;;;;3.90;1.38;;;26.80;99.90;;;;;;5065777;28;20407;-65
2022/08/04 10:06:48;;;;;;;4.20;1.63;;;26.70;99.90;;;;;;5050377;28;20083;-59
2022/08/04 10:09:46;;;;;;;5.18;1.60;;;26.60;99.90;;;;;;5051476;28;20041;-57
2022/08/04 10:12:24;;;;;;;2.90;1.40;;;26.80;99.30;;;;;;5051677;28;20040;-61
2022/08/04 10:15:05;;;;;;;6.28;1.50;;;26.60;99.40;;;;;;5051281;28;20048;-62
2022/08/04 10:17:44;;;;;;;1.48;0.95;;;26.50;99.20;;;;;;5032716;28;20043;-60
2022/08/04 10:20:41;;;;;;;3.08;1.25;;;26.30;97.60;;;;;;5031034;28;20052;-61
2022/08/04 10:23:34;;;;;;;3.97;1.38;;;26.30;98.20;;;;;;5031498;28;20045;-60
2022/08/04 10:26:45;;;;;;;2.35;1.20;;;26.20;99.00;;;;;;5031612;28;20080;-60
2022/08/04 10:29:21;;;;;;;4.00;1.30;;;26.40;98.70;;;;;;5029443;28;20502;-62
2022/08/04 10:31:56;;;;;;;2.70;1.20;;;26.30;97.00;;;;;;5030185;28;20056;-63
2022/08/04 10:34:28;;;;;;;3.53;1.52;;;26.20;97.70;;;;;;5039074;28;20066;-60
2022/08/04 10:37:12;;;;;;;3.17;1.30;;;26.30;97.90;;;;;;5047269;28;20076;-60
2022/08/04 10:43:12;;;;;;;2.80;1.30;;;26.60;97.40;;;;;;5054088;28;20103;-60
2022/08/04 10:45:51;;;;;;;3.65;1.20;;;26.70;97.20;;;;;;5050852;28;20400;-60
2022/08/04 10:48:57;;;;;;;3.47;1.30;;;26.80;97.00;;;;;;5050341;28;20517;-61
2022/08/04 10:51:49;;;;;;;5.25;1.33;;;26.40;96.30;;;;;;5047550;28;20060;-62
2022/08/04 10:54:36;;;;;;;6.25;1.67;;;26.20;97.20;;;;;;5046571;28;20124;-63
2022/08/04 10:57:31;;;;;;;1.83;1.17;;;26.20;97.40;;;;;;5029884;28;20591;-61
2022/08/04 11:00:04;;;;;;;2.80;1.00;;;26.20;97.70;;;;;;5028061;28;20587;-60
2022/08/04 11:02:56;;;;;;;2.90;1.27;;;26.10;97.50;;;;;;5030998;28;20049;-58
2022/08/04 11:05:38;;;;;;;2.40;1.20;;;26.20;97.10;;;;;;5026111;28;20496;-60
2022/08/04 11:08:10;;;;;;;2.30;1.10;;;26.10;96.50;;;;;;5031042;28;20069;-60
2022/08/04 11:10:47;;;;;;;2.65;1.27;;;26.10;96.90;;;;;;5031536;28;20083;-59
2022/08/04 11:13:16;;;;;;;2.90;1.17;;;25.90;96.40;;;;;;5034624;28;20069;-59
2022/08/04 11:15:54;;;;;;;3.40;1.42;;;25.90;96.40;;;;;;5033180;28;20041;-61
2022/08/04 11:18:33;;;;;;;2.20;1.10;;;25.80;96.60;;;;;;5033072;28;20079;-61
2022/08/04 11:21:09;;;;;;;2.33;1.33;;;25.80;97.00;;;;;;5034276;28;20045;-60
2022/08/04 11:23:38;;;;;;;3.60;1.42;;;25.90;97.40;;;;;;5033355;28;20095;-62
2022/08/04 11:26:27;;;;;;;3.55;1.40;;;26.00;97.00;;;;;;5033151;28;20053;-61
2022/08/04 11:29:03;;;;;;;5.78;1.42;;;26.10;97.00;;;;;;5034496;28;20041;-60
2022/08/04 11:31:34;;;;;;;3.45;1.35;;;26.00;97.30;;;;;;5034830;28;20041;-61
2022/08/04 11:34:08;;;;;;;4.43;1.65;;;25.80;96.80;;;;;;5032804;28;20084;-61
2022/08/04 11:36:56;;;;;;;4.50;1.65;;;25.90;97.20;;;;;;5034469;28;20077;-60
2022/08/04 11:39:35;;;;;;;3.00;1.50;;;25.80;96.40;;;;;;5033677;28;20073;-60
2022/08/04 11:42:14;;;;;;;3.53;1.40;;;25.80;97.00;;;;;;5041938;28;20148;-62
2022/08/04 11:45:10;;;;;;;2.92;1.38;;;25.70;97.10;;;;;;5042872;28;20045;-61
2022/08/04 11:47:54;;;;;;;4.32;1.02;;;25.70;97.20;;;;;;5024246;28;20032;-61
2022/08/04 11:50:33;;;;;;;3.63;1.10;;;25.60;96.50;;;;;;5041876;28;20487;-63
2022/08/04 11:53:01;;;;;;;1.63;1.00;;;25.40;97.00;;;;;;5042393;28;20049;-63
2022/08/04 11:55:29;;;;;;;3.50;1.48;;;25.30;96.50;;;;;;5049592;28;20076;-63
2022/08/04 11:57:55;;;;;;;4.10;1.13;;;25.20;97.10;;;;;;5042240;28;20208;-62
2022/08/04 12:00:23;;;;;;;3.05;1.40;;;25.40;96.90;;;;;;5039387;28;20539;-63
2022/08/04 12:03:14;;;;;;;3.67;1.50;;;25.50;96.80;;;;;;5043193;28;20475;-61
2022/08/04 12:05:54;;;;;;;3.55;1.10;;;25.50;97.10;;;;;;5037188;28;20077;-63
2022/08/04 12:08:30;;;;;;;4.25;1.25;;;25.60;97.50;;;;;;5046202;28;20036;-63
2022/08/04 12:11:16;;;;;;;3.92;1.23;;;25.70;97.50;;;;;;5036543;28;20053;-61
2022/08/04 12:13:56;;;;;;;2.45;0.98;;;25.90;97.30;;;;;;5041420;28;20048;-63
2022/08/04 12:16:54;;;;;;;2.88;1.15;;;26.10;96.90;;;;;;5040786;28;20045;-63
2022/08/04 12:19:45;;;;;;;3.20;1.60;;;26.30;96.70;;;;;;5036882;28;20057;-62
2022/08/04 12:22:17;;;;;;;5.13;1.40;;;26.20;96.00;;;;;;5038039;28;20045;-62
2022/08/04 12:24:51;;;;;;;2.20;1.45;;;26.30;96.10;;;;;;5036440;28;20043;-60
2022/08/04 12:27:23;;;;;;;2.08;1.08;;;26.30;95.30;;;;;;5043481;28;20041;-61
2022/08/04 12:29:52;;;;;;;3.25;1.00;;;26.50;96.40;;;;;;5038481;28;20056;-62
2022/08/04 12:32:38;;;;;;;1.65;1.00;;;26.40;95.10;;;;;;5040288;28;20046;-61
2022/08/04 12:35:34;;;;;;;4.47;1.25;;;26.40;94.70;;;;;;5043261;28;20053;-60
2022/08/04 12:38:06;;;;;;;4.05;1.40;;;26.50;94.80;;;;;;5034216;28;20134;-62
2022/08/04 12:40:45;;;;;;;3.38;1.75;;;26.70;93.70;;;;;;5036526;28;20399;-63
2022/08/04 12:43:34;;;;;;;3.90;1.40;;;26.70;94.30;;;;;;5037894;28;20208;-62
2022/08/04 12:46:03;;;;;;;3.72;1.20;;;26.80;94.00;;;;;;5033097;28;20122;-61
2022/08/04 12:48:31;;;;;;;4.47;1.25;;;26.70;93.30;;;;;;5041736;28;20041;-62
2022/08/04 12:50:57;;;;;;;4.18;1.42;;;26.90;93.90;;;;;;5039242;28;20159;-59
2022/08/04 12:53:31;;;;;;;6.32;1.20;;;26.70;94.10;;;;;;5041635;28;20078;-61
2022/08/04 12:55:58;;;;;;;4.20;1.42;;;26.80;94.20;;;;;;5040396;28;20488;-59
2022/08/04 12:58:27;;;;;;;1.98;1.08;;;27.00;93.60;;;;;;5035881;28;20671;-60
2022/08/04 13:00:57;;;;;;;4.10;1.58;;;27.10;93.80;;;;;;5031879;28;20045;-60
2022/08/04 13:03:28;;;;;;;4.32;1.52;;;27.10;93.30;;;;;;5004700;28;20582;-62
2022/08/04 13:05:54;;;;;;;2.63;1.35;;;27.40;92.70;;;;;;5036559;28;20295;-63
2022/08/04 13:08:22;;;;;;;3.53;1.30;;;27.60;92.70;;;;;;5043699;28;20037;-59
2022/08/04 13:10:52;;;;;;;7.60;1.65;;;27.30;91.90;;;;;;5050075;28;20033;-60
2022/08/04 13:13:25;;;;;;;3.92;1.23;;;27.00;92.10;;;;;;5052410;28;20115;-60
2022/08/04 13:16:09;;;;;;;;;;;27.10;92.40;;;;;;5045393;28;20045;-59
2022/08/04 13:18:39;;;;;;;;;;;27.30;92.80;;;;;;5040660;28;20163;-59
2022/08/04 13:21:19;;;;;;;4.28;1.58;;;27.50;92.10;;;;;;5031718;28;19921;-62
2022/08/04 13:23:45;;;;;;;3.35;1.52;;;27.40;92.00;;;;;;5031623;28;20377;-61
2022/08/04 13:26:13;;;;;;;4.00;1.67;;;27.20;92.40;;;;;;5032729;28;20049;-62
2022/08/04 13:28:43;;;;;;;3.30;1.50;;;26.80;92.30;;;;;;5030919;28;20045;-63
2022/08/04 13:31:18;;;;;;;4.65;1.70;;;26.70;91.90;;;;;;5030736;28;20050;-63
2022/08/04 13:33:47;;;;;;;4.88;1.80;;;26.70;92.40;;;;;;5031877;28;20042;-64
2022/08/04 13:36:16;;;;;;;5.70;1.80;;;26.60;92.50;;;;;;5032244;28;20041;-63
2022/08/04 13:39:07;;;;;;;4.85;1.90;;;26.80;92.90;;;;;;5031666;28;20397;-64
2022/08/04 13:41:38;;;;;;;5.00;1.95;;;26.80;92.50;;;;;;5030722;28;20065;-65
2022/08/04 13:44:08;;;;;;;3.78;1.85;;;26.50;93.20;;;;;;5014198;28;20524;-57
2022/08/04 13:46:43;;;;;;;4.32;1.70;;;26.40;93.50;;;;;;5032132;28;20045;-59